sensor_id;sensor_type;location;lat;lon;timestamp;P1;durP1;ratioP1;P2;durP2;ratioP2
18853;SDS011;9556;49.374;19.446;2024-01-11T00:02:00;40.50;;;24.17;;
18853;SDS011;9556;49.374;19.446;2024-01-11T00:04:27;42.50;;;25.60;;
18853;SDS011;9556;49.374;19.446;2024-01-11T00:06:56;44.05;;;25.38;;
18853;SDS011;9556;49.374;19.446;2024-01-11T00:09:23;34.83;;;21.55;;
18853;SDS011;9556;49.374;19.446;2024-01-11T00:11:50;33.13;;;19.88;;
18853;SDS011;9556;49.374;19.446;2024-01-11T00:14:17;32.00;;;19.77;;
18853;SDS011;9556;49.374;19.446;2024-01-11T00:16:44;33.47;;;20.67;;
18853;SDS011;9556;49.374;19.446;2024-01-11T00:19:11;33.03;;;19.83;;
18853;SDS011;9556;49.374;19.446;2024-01-11T00:21:39;31.65;;;20.13;;
18853;SDS011;9556;49.374;19.446;2024-01-11T00:24:07;33.15;;;20.30;;
18853;SDS011;9556;49.374;19.446;2024-01-11T00:26:34;34.60;;;20.15;;
18853;SDS011;9556;49.374;19.446;2024-01-11T00:29:02;32.35;;;20.17;;
18853;SDS011;9556;49.374;19.446;2024-01-11T00:31:29;33.08;;;20.35;;
18853;SDS011;9556;49.374;19.446;2024-01-11T00:33:56;30.63;;;19.60;;
18853;SDS011;9556;49.374;19.446;2024-01-11T00:36:23;35.55;;;19.98;;
18853;SDS011;9556;49.374;19.446;2024-01-11T00:38:51;32.15;;;18.95;;
18853;SDS011;9556;49.374;19.446;2024-01-11T00:41:20;31.90;;;18.52;;
18853;SDS011;9556;49.374;19.446;2024-01-11T00:43:47;29.70;;;18.55;;
18853;SDS011;9556;49.374;19.446;2024-01-11T00:46:14;31.17;;;19.52;;
18853;SDS011;9556;49.374;19.446;2024-01-11T00:48:41;32.13;;;19.73;;
18853;SDS011;9556;49.374;19.446;2024-01-11T00:51:08;28.80;;;18.38;;
18853;SDS011;9556;49.374;19.446;2024-01-11T00:53:35;29.02;;;18.90;;
18853;SDS011;9556;49.374;19.446;2024-01-11T00:56:03;29.10;;;18.85;;
18853;SDS011;9556;49.374;19.446;2024-01-11T00:58:32;28.05;;;17.85;;
18853;SDS011;9556;49.374;19.446;2024-01-11T01:00:59;31.70;;;19.98;;
18853;SDS011;9556;49.374;19.446;2024-01-11T01:03:26;35.25;;;22.38;;
18853;SDS011;9556;49.374;19.446;2024-01-11T01:05:53;37.03;;;22.63;;
18853;SDS011;9556;49.374;19.446;2024-01-11T01:08:20;39.33;;;23.23;;
18853;SDS011;9556;49.374;19.446;2024-01-11T01:10:48;30.17;;;18.65;;
18853;SDS011;9556;49.374;19.446;2024-01-11T01:13:15;26.65;;;17.35;;
18853;SDS011;9556;49.374;19.446;2024-01-11T01:15:43;29.05;;;17.85;;
18853;SDS011;9556;49.374;19.446;2024-01-11T01:18:10;34.08;;;17.80;;
18853;SDS011;9556;49.374;19.446;2024-01-11T01:20:37;27.75;;;17.25;;
18853;SDS011;9556;49.374;19.446;2024-01-11T01:23:05;27.70;;;17.35;;
18853;SDS011;9556;49.374;19.446;2024-01-11T01:25:32;29.50;;;17.02;;
18853;SDS011;9556;49.374;19.446;2024-01-11T01:27:59;29.15;;;17.63;;
18853;SDS011;9556;49.374;19.446;2024-01-11T01:30:26;28.13;;;17.77;;
18853;SDS011;9556;49.374;19.446;2024-01-11T01:32:55;27.50;;;17.63;;
18853;SDS011;9556;49.374;19.446;2024-01-11T01:35:22;29.65;;;17.65;;
18853;SDS011;9556;49.374;19.446;2024-01-11T01:37:49;28.33;;;17.85;;
18853;SDS011;9556;49.374;19.446;2024-01-11T01:40:16;31.73;;;17.50;;
18853;SDS011;9556;49.374;19.446;2024-01-11T01:42:44;27.05;;;16.95;;
18853;SDS011;9556;49.374;19.446;2024-01-11T01:45:11;27.83;;;17.88;;
18853;SDS011;9556;49.374;19.446;2024-01-11T01:47:39;27.23;;;17.35;;
18853;SDS011;9556;49.374;19.446;2024-01-11T01:50:09;27.52;;;16.35;;
18853;SDS011;9556;49.374;19.446;2024-01-11T01:52:37;26.67;;;17.42;;
18853;SDS011;9556;49.374;19.446;2024-01-11T01:55:05;27.50;;;17.30;;
18853;SDS011;9556;49.374;19.446;2024-01-11T01:57:33;27.00;;;16.17;;
18853;SDS011;9556;49.374;19.446;2024-01-11T02:00:01;27.65;;;16.95;;
18853;SDS011;9556;49.374;19.446;2024-01-11T02:02:29;28.80;;;18.13;;
18853;SDS011;9556;49.374;19.446;2024-01-11T02:04:57;29.15;;;18.00;;
18853;SDS011;9556;49.374;19.446;2024-01-11T02:07:26;29.27;;;17.65;;
18853;SDS011;9556;49.374;19.446;2024-01-11T02:09:53;26.58;;;16.02;;
18853;SDS011;9556;49.374;19.446;2024-01-11T02:12:21;26.73;;;16.73;;
18853;SDS011;9556;49.374;19.446;2024-01-11T02:14:48;25.33;;;16.20;;
18853;SDS011;9556;49.374;19.446;2024-01-11T02:17:16;26.00;;;16.27;;
18853;SDS011;9556;49.374;19.446;2024-01-11T02:19:43;24.65;;;15.48;;
18853;SDS011;9556;49.374;19.446;2024-01-11T02:22:12;25.85;;;15.73;;
18853;SDS011;9556;49.374;19.446;2024-01-11T02:24:41;24.60;;;15.65;;
18853;SDS011;9556;49.374;19.446;2024-01-11T02:27:08;27.17;;;16.27;;
18853;SDS011;9556;49.374;19.446;2024-01-11T02:29:36;27.70;;;16.70;;
18853;SDS011;9556;49.374;19.446;2024-01-11T02:32:03;25.98;;;15.73;;
18853;SDS011;9556;49.374;19.446;2024-01-11T02:34:31;23.98;;;15.38;;
18853;SDS011;9556;49.374;19.446;2024-01-11T02:36:58;23.05;;;14.82;;
18853;SDS011;9556;49.374;19.446;2024-01-11T02:39:26;26.05;;;14.98;;
18853;SDS011;9556;49.374;19.446;2024-01-11T02:41:55;23.85;;;14.88;;
18853;SDS011;9556;49.374;19.446;2024-01-11T02:44:22;22.33;;;14.15;;
18853;SDS011;9556;49.374;19.446;2024-01-11T02:46:49;23.73;;;14.43;;
18853;SDS011;9556;49.374;19.446;2024-01-11T02:49:16;24.15;;;14.68;;
18853;SDS011;9556;49.374;19.446;2024-01-11T02:51:44;22.40;;;14.68;;
18853;SDS011;9556;49.374;19.446;2024-01-11T02:54:11;23.33;;;14.93;;
18853;SDS011;9556;49.374;19.446;2024-01-11T02:56:38;21.85;;;14.43;;
18853;SDS011;9556;49.374;19.446;2024-01-11T02:59:06;21.73;;;13.57;;
18853;SDS011;9556;49.374;19.446;2024-01-11T03:01:34;20.98;;;11.82;;
18853;SDS011;9556;49.374;19.446;2024-01-11T03:04:01;18.30;;;11.43;;
18853;SDS011;9556;49.374;19.446;2024-01-11T03:06:28;18.38;;;11.32;;
18853;SDS011;9556;49.374;19.446;2024-01-11T03:08:55;17.88;;;11.43;;
18853;SDS011;9556;49.374;19.446;2024-01-11T03:11:22;20.83;;;12.27;;
18853;SDS011;9556;49.374;19.446;2024-01-11T03:13:50;19.13;;;12.30;;
18853;SDS011;9556;49.374;19.446;2024-01-11T03:16:18;19.48;;;13.13;;
18853;SDS011;9556;49.374;19.446;2024-01-11T03:18:45;21.20;;;13.35;;
18853;SDS011;9556;49.374;19.446;2024-01-11T03:21:12;20.63;;;12.68;;
18853;SDS011;9556;49.374;19.446;2024-01-11T03:23:40;18.55;;;12.38;;
18853;SDS011;9556;49.374;19.446;2024-01-11T03:26:11;19.08;;;12.00;;
18853;SDS011;9556;49.374;19.446;2024-01-11T03:28:39;18.55;;;12.38;;
18853;SDS011;9556;49.374;19.446;2024-01-11T03:31:06;18.67;;;12.32;;
18853;SDS011;9556;49.374;19.446;2024-01-11T03:33:35;17.50;;;11.68;;
18853;SDS011;9556;49.374;19.446;2024-01-11T03:36:06;20.38;;;11.88;;
18853;SDS011;9556;49.374;19.446;2024-01-11T03:38:33;18.95;;;11.93;;
18853;SDS011;9556;49.374;19.446;2024-01-11T03:41:00;20.33;;;12.30;;
18853;SDS011;9556;49.374;19.446;2024-01-11T03:43:28;17.65;;;11.73;;
18853;SDS011;9556;49.374;19.446;2024-01-11T03:45:55;19.27;;;11.95;;
18853;SDS011;9556;49.374;19.446;2024-01-11T03:48:22;18.02;;;11.15;;
18853;SDS011;9556;49.374;19.446;2024-01-11T03:50:50;20.00;;;12.05;;
18853;SDS011;9556;49.374;19.446;2024-01-11T03:53:17;16.08;;;10.82;;
18853;SDS011;9556;49.374;19.446;2024-01-11T03:55:45;16.80;;;11.00;;
18853;SDS011;9556;49.374;19.446;2024-01-11T03:58:12;17.25;;;11.05;;
18853;SDS011;9556;49.374;19.446;2024-01-11T04:00:39;16.55;;;10.75;;
18853;SDS011;9556;49.374;19.446;2024-01-11T04:03:06;15.38;;;9.98;;
18853;SDS011;9556;49.374;19.446;2024-01-11T04:05:33;16.98;;;10.80;;
18853;SDS011;9556;49.374;19.446;2024-01-11T04:08:04;17.13;;;10.75;;
18853;SDS011;9556;49.374;19.446;2024-01-11T04:10:31;16.83;;;10.40;;
18853;SDS011;9556;49.374;19.446;2024-01-11T04:12:58;19.20;;;11.00;;
18853;SDS011;9556;49.374;19.446;2024-01-11T04:15:26;17.15;;;10.60;;
18853;SDS011;9556;49.374;19.446;2024-01-11T04:17:53;16.88;;;10.38;;
18853;SDS011;9556;49.374;19.446;2024-01-11T04:20:20;15.70;;;10.25;;
18853;SDS011;9556;49.374;19.446;2024-01-11T04:22:48;15.18;;;9.63;;
18853;SDS011;9556;49.374;19.446;2024-01-11T04:25:17;15.98;;;9.90;;
18853;SDS011;9556;49.374;19.446;2024-01-11T04:27:45;16.58;;;10.55;;
18853;SDS011;9556;49.374;19.446;2024-01-11T04:30:12;15.75;;;10.00;;
18853;SDS011;9556;49.374;19.446;2024-01-11T04:32:40;14.55;;;8.85;;
18853;SDS011;9556;49.374;19.446;2024-01-11T04:35:07;14.77;;;9.27;;
18853;SDS011;9556;49.374;19.446;2024-01-11T04:37:35;15.02;;;9.40;;
18853;SDS011;9556;49.374;19.446;2024-01-11T04:40:02;13.60;;;8.93;;
18853;SDS011;9556;49.374;19.446;2024-01-11T04:42:31;12.85;;;8.95;;
18853;SDS011;9556;49.374;19.446;2024-01-11T04:44:58;16.88;;;10.05;;
18853;SDS011;9556;49.374;19.446;2024-01-11T04:47:26;13.75;;;8.80;;
18853;SDS011;9556;49.374;19.446;2024-01-11T04:49:53;13.35;;;8.63;;
18853;SDS011;9556;49.374;19.446;2024-01-11T04:52:20;16.10;;;9.38;;
18853;SDS011;9556;49.374;19.446;2024-01-11T04:54:47;16.15;;;9.90;;
18853;SDS011;9556;49.374;19.446;2024-01-11T04:57:14;13.13;;;8.70;;
18853;SDS011;9556;49.374;19.446;2024-01-11T04:59:43;14.95;;;8.90;;
18853;SDS011;9556;49.374;19.446;2024-01-11T05:02:10;12.65;;;8.23;;
18853;SDS011;9556;49.374;19.446;2024-01-11T05:04:37;13.25;;;9.10;;
18853;SDS011;9556;49.374;19.446;2024-01-11T05:07:04;12.13;;;8.15;;
18853;SDS011;9556;49.374;19.446;2024-01-11T05:09:31;12.57;;;8.23;;
18853;SDS011;9556;49.374;19.446;2024-01-11T05:11:59;14.73;;;8.07;;
18853;SDS011;9556;49.374;19.446;2024-01-11T05:14:26;12.98;;;8.18;;
18853;SDS011;9556;49.374;19.446;2024-01-11T05:16:55;15.18;;;7.10;;
18853;SDS011;9556;49.374;19.446;2024-01-11T05:19:22;11.68;;;7.68;;
18853;SDS011;9556;49.374;19.446;2024-01-11T05:21:49;10.05;;;6.60;;
18853;SDS011;9556;49.374;19.446;2024-01-11T05:24:19;12.30;;;7.43;;
18853;SDS011;9556;49.374;19.446;2024-01-11T05:26:47;11.63;;;7.13;;
18853;SDS011;9556;49.374;19.446;2024-01-11T05:29:14;16.15;;;7.68;;
18853;SDS011;9556;49.374;19.446;2024-01-11T05:31:41;13.98;;;7.22;;
18853;SDS011;9556;49.374;19.446;2024-01-11T05:34:09;10.38;;;6.88;;
18853;SDS011;9556;49.374;19.446;2024-01-11T05:36:38;9.88;;;6.57;;
18853;SDS011;9556;49.374;19.446;2024-01-11T05:39:05;11.10;;;6.80;;
18853;SDS011;9556;49.374;19.446;2024-01-11T05:41:32;10.32;;;6.88;;
18853;SDS011;9556;49.374;19.446;2024-01-11T05:43:59;11.50;;;6.40;;
18853;SDS011;9556;49.374;19.446;2024-01-11T05:46:26;14.30;;;7.57;;
18853;SDS011;9556;49.374;19.446;2024-01-11T05:48:53;12.52;;;6.75;;
18853;SDS011;9556;49.374;19.446;2024-01-11T05:51:22;11.65;;;6.80;;
18853;SDS011;9556;49.374;19.446;2024-01-11T05:53:49;17.35;;;6.70;;
18853;SDS011;9556;49.374;19.446;2024-01-11T05:56:18;13.07;;;6.47;;
18853;SDS011;9556;49.374;19.446;2024-01-11T05:58:46;12.68;;;6.75;;
18853;SDS011;9556;49.374;19.446;2024-01-11T06:01:13;15.00;;;7.55;;
18853;SDS011;9556;49.374;19.446;2024-01-11T06:03:40;13.05;;;8.48;;
18853;SDS011;9556;49.374;19.446;2024-01-11T06:06:07;14.38;;;8.32;;
18853;SDS011;9556;49.374;19.446;2024-01-11T06:08:36;10.43;;;6.35;;
18853;SDS011;9556;49.374;19.446;2024-01-11T06:11:03;14.23;;;6.30;;
18853;SDS011;9556;49.374;19.446;2024-01-11T06:13:31;12.00;;;6.35;;
18853;SDS011;9556;49.374;19.446;2024-01-11T06:15:58;13.38;;;6.25;;
18853;SDS011;9556;49.374;19.446;2024-01-11T06:18:25;13.27;;;6.10;;
18853;SDS011;9556;49.374;19.446;2024-01-11T06:20:52;14.10;;;6.90;;
18853;SDS011;9556;49.374;19.446;2024-01-11T06:23:20;16.05;;;8.20;;
18853;SDS011;9556;49.374;19.446;2024-01-11T06:25:48;18.15;;;6.10;;
18853;SDS011;9556;49.374;19.446;2024-01-11T06:28:15;24.10;;;6.68;;
18853;SDS011;9556;49.374;19.446;2024-01-11T06:30:42;14.60;;;6.63;;
18853;SDS011;9556;49.374;19.446;2024-01-11T06:33:10;12.68;;;6.60;;
18853;SDS011;9556;49.374;19.446;2024-01-11T06:35:37;11.75;;;7.18;;
18853;SDS011;9556;49.374;19.446;2024-01-11T06:38:05;12.90;;;6.50;;
18853;SDS011;9556;49.374;19.446;2024-01-11T06:40:32;11.23;;;6.75;;
18853;SDS011;9556;49.374;19.446;2024-01-11T06:43:01;11.75;;;5.93;;
18853;SDS011;9556;49.374;19.446;2024-01-11T06:45:28;9.93;;;5.72;;
18853;SDS011;9556;49.374;19.446;2024-01-11T06:47:55;20.80;;;6.43;;
18853;SDS011;9556;49.374;19.446;2024-01-11T06:50:23;13.70;;;6.10;;
18853;SDS011;9556;49.374;19.446;2024-01-11T06:52:50;12.38;;;6.20;;
18853;SDS011;9556;49.374;19.446;2024-01-11T06:55:17;11.35;;;5.82;;
18853;SDS011;9556;49.374;19.446;2024-01-11T06:57:46;10.48;;;5.40;;
18853;SDS011;9556;49.374;19.446;2024-01-11T07:00:15;14.15;;;6.63;;
18853;SDS011;9556;49.374;19.446;2024-01-11T07:02:42;12.73;;;7.30;;
18853;SDS011;9556;49.374;19.446;2024-01-11T07:05:10;17.33;;;8.88;;
18853;SDS011;9556;49.374;19.446;2024-01-11T07:07:37;16.83;;;8.70;;
18853;SDS011;9556;49.374;19.446;2024-01-11T07:10:05;9.50;;;5.80;;
18853;SDS011;9556;49.374;19.446;2024-01-11T07:12:33;10.30;;;6.05;;
18853;SDS011;9556;49.374;19.446;2024-01-11T07:15:03;9.48;;;6.28;;
18853;SDS011;9556;49.374;19.446;2024-01-11T07:17:33;11.27;;;5.95;;
18853;SDS011;9556;49.374;19.446;2024-01-11T07:20:00;10.20;;;6.07;;
18853;SDS011;9556;49.374;19.446;2024-01-11T07:22:29;9.75;;;6.13;;
18853;SDS011;9556;49.374;19.446;2024-01-11T07:24:56;11.77;;;6.68;;
18853;SDS011;9556;49.374;19.446;2024-01-11T07:27:23;13.75;;;6.28;;
18853;SDS011;9556;49.374;19.446;2024-01-11T07:29:50;9.90;;;6.25;;
18853;SDS011;9556;49.374;19.446;2024-01-11T07:32:18;12.68;;;6.95;;
18853;SDS011;9556;49.374;19.446;2024-01-11T07:34:46;11.82;;;6.78;;
18853;SDS011;9556;49.374;19.446;2024-01-11T07:37:14;9.52;;;6.05;;
18853;SDS011;9556;49.374;19.446;2024-01-11T07:39:41;9.63;;;6.05;;
18853;SDS011;9556;49.374;19.446;2024-01-11T07:42:08;9.43;;;6.22;;
18853;SDS011;9556;49.374;19.446;2024-01-11T07:44:35;10.77;;;6.57;;
18853;SDS011;9556;49.374;19.446;2024-01-11T07:47:02;11.23;;;6.68;;
18853;SDS011;9556;49.374;19.446;2024-01-11T07:49:29;9.10;;;6.05;;
18853;SDS011;9556;49.374;19.446;2024-01-11T07:51:58;10.50;;;6.97;;
18853;SDS011;9556;49.374;19.446;2024-01-11T07:54:25;9.65;;;6.07;;
18853;SDS011;9556;49.374;19.446;2024-01-11T07:56:52;10.07;;;6.55;;
18853;SDS011;9556;49.374;19.446;2024-01-11T07:59:20;12.73;;;7.32;;
18853;SDS011;9556;49.374;19.446;2024-01-11T08:01:47;12.18;;;7.03;;
18853;SDS011;9556;49.374;19.446;2024-01-11T08:04:14;14.25;;;7.95;;
18853;SDS011;9556;49.374;19.446;2024-01-11T08:06:42;14.30;;;9.25;;
18853;SDS011;9556;49.374;19.446;2024-01-11T08:09:10;10.50;;;6.30;;
18853;SDS011;9556;49.374;19.446;2024-01-11T08:11:38;10.27;;;5.88;;
18853;SDS011;9556;49.374;19.446;2024-01-11T08:14:06;11.82;;;6.70;;
18853;SDS011;9556;49.374;19.446;2024-01-11T08:16:33;11.30;;;6.72;;
18853;SDS011;9556;49.374;19.446;2024-01-11T08:19:01;11.75;;;6.40;;
18853;SDS011;9556;49.374;19.446;2024-01-11T08:21:28;11.23;;;6.88;;
18853;SDS011;9556;49.374;19.446;2024-01-11T08:23:55;12.00;;;6.13;;
18853;SDS011;9556;49.374;19.446;2024-01-11T08:26:24;11.30;;;7.00;;
18853;SDS011;9556;49.374;19.446;2024-01-11T08:28:51;10.50;;;6.28;;
18853;SDS011;9556;49.374;19.446;2024-01-11T08:31:18;11.40;;;6.78;;
18853;SDS011;9556;49.374;19.446;2024-01-11T08:33:46;10.88;;;6.85;;
18853;SDS011;9556;49.374;19.446;2024-01-11T08:36:13;10.75;;;6.88;;
18853;SDS011;9556;49.374;19.446;2024-01-11T08:38:40;11.48;;;6.60;;
18853;SDS011;9556;49.374;19.446;2024-01-11T08:41:07;11.80;;;6.90;;
18853;SDS011;9556;49.374;19.446;2024-01-11T08:43:36;10.60;;;6.65;;
18853;SDS011;9556;49.374;19.446;2024-01-11T08:46:04;9.90;;;6.50;;
18853;SDS011;9556;49.374;19.446;2024-01-11T08:48:31;9.70;;;6.45;;
18853;SDS011;9556;49.374;19.446;2024-01-11T08:50:58;9.23;;;5.90;;
18853;SDS011;9556;49.374;19.446;2024-01-11T08:53:25;12.25;;;6.55;;
18853;SDS011;9556;49.374;19.446;2024-01-11T08:55:53;9.80;;;6.50;;
18853;SDS011;9556;49.374;19.446;2024-01-11T08:58:20;10.98;;;6.47;;
18853;SDS011;9556;49.374;19.446;2024-01-11T09:00:48;9.57;;;6.03;;
18853;SDS011;9556;49.374;19.446;2024-01-11T09:03:15;15.43;;;9.75;;
18853;SDS011;9556;49.374;19.446;2024-01-11T09:05:43;26.02;;;14.70;;
18853;SDS011;9556;49.374;19.446;2024-01-11T09:08:10;32.35;;;18.98;;
18853;SDS011;9556;49.374;19.446;2024-01-11T09:10:37;15.85;;;9.15;;
18853;SDS011;9556;49.374;19.446;2024-01-11T09:13:04;14.18;;;8.23;;
18853;SDS011;9556;49.374;19.446;2024-01-11T09:15:31;11.90;;;7.43;;
18853;SDS011;9556;49.374;19.446;2024-01-11T09:18:00;12.65;;;7.25;;
18853;SDS011;9556;49.374;19.446;2024-01-11T09:20:27;12.48;;;7.82;;
18853;SDS011;9556;49.374;19.446;2024-01-11T09:22:55;13.82;;;8.27;;
18853;SDS011;9556;49.374;19.446;2024-01-11T09:25:22;13.13;;;8.15;;
18853;SDS011;9556;49.374;19.446;2024-01-11T09:27:50;11.77;;;7.78;;
18853;SDS011;9556;49.374;19.446;2024-01-11T09:30:17;14.60;;;7.90;;
18853;SDS011;9556;49.374;19.446;2024-01-11T09:32:44;12.13;;;7.78;;
18853;SDS011;9556;49.374;19.446;2024-01-11T09:35:14;12.07;;;7.63;;
18853;SDS011;9556;49.374;19.446;2024-01-11T09:37:41;12.13;;;7.43;;
18853;SDS011;9556;49.374;19.446;2024-01-11T09:40:11;12.15;;;7.75;;
18853;SDS011;9556;49.374;19.446;2024-01-11T09:42:38;12.18;;;7.38;;
18853;SDS011;9556;49.374;19.446;2024-01-11T09:45:07;12.00;;;7.57;;
18853;SDS011;9556;49.374;19.446;2024-01-11T09:47:35;11.45;;;7.28;;
18853;SDS011;9556;49.374;19.446;2024-01-11T09:50:03;11.13;;;7.60;;
18853;SDS011;9556;49.374;19.446;2024-01-11T09:52:32;11.05;;;7.18;;
18853;SDS011;9556;49.374;19.446;2024-01-11T09:54:59;11.57;;;7.70;;
18853;SDS011;9556;49.374;19.446;2024-01-11T09:57:28;11.02;;;6.95;;
18853;SDS011;9556;49.374;19.446;2024-01-11T09:59:56;10.52;;;6.78;;
18853;SDS011;9556;49.374;19.446;2024-01-11T10:02:23;9.20;;;5.88;;
18853;SDS011;9556;49.374;19.446;2024-01-11T10:04:51;8.32;;;5.57;;
18853;SDS011;9556;49.374;19.446;2024-01-11T10:07:19;8.90;;;5.82;;
18853;SDS011;9556;49.374;19.446;2024-01-11T10:09:51;10.02;;;6.10;;
18853;SDS011;9556;49.374;19.446;2024-01-11T10:12:18;11.35;;;6.70;;
18853;SDS011;9556;49.374;19.446;2024-01-11T10:14:48;10.30;;;6.20;;
18853;SDS011;9556;49.374;19.446;2024-01-11T10:17:15;10.57;;;6.65;;
18853;SDS011;9556;49.374;19.446;2024-01-11T10:19:42;10.57;;;6.93;;
18853;SDS011;9556;49.374;19.446;2024-01-11T10:22:10;9.48;;;6.20;;
18853;SDS011;9556;49.374;19.446;2024-01-11T10:24:38;12.32;;;6.70;;
18853;SDS011;9556;49.374;19.446;2024-01-11T10:27:09;10.32;;;6.55;;
18853;SDS011;9556;49.374;19.446;2024-01-11T10:29:36;9.98;;;6.30;;
18853;SDS011;9556;49.374;19.446;2024-01-11T10:32:04;10.75;;;6.60;;
18853;SDS011;9556;49.374;19.446;2024-01-11T10:34:31;11.80;;;6.50;;
18853;SDS011;9556;49.374;19.446;2024-01-11T10:36:58;9.43;;;6.22;;
18853;SDS011;9556;49.374;19.446;2024-01-11T10:39:26;9.73;;;6.07;;
18853;SDS011;9556;49.374;19.446;2024-01-11T10:41:56;9.43;;;6.30;;
18853;SDS011;9556;49.374;19.446;2024-01-11T10:44:27;11.15;;;6.90;;
18853;SDS011;9556;49.374;19.446;2024-01-11T10:46:56;10.00;;;5.93;;
18853;SDS011;9556;49.374;19.446;2024-01-11T10:49:24;9.65;;;6.35;;
18853;SDS011;9556;49.374;19.446;2024-01-11T10:51:53;8.52;;;5.93;;
18853;SDS011;9556;49.374;19.446;2024-01-11T10:54:21;11.50;;;6.80;;
18853;SDS011;9556;49.374;19.446;2024-01-11T10:56:49;10.00;;;6.30;;
18853;SDS011;9556;49.374;19.446;2024-01-11T10:59:16;12.65;;;8.02;;
18853;SDS011;9556;49.374;19.446;2024-01-11T11:01:47;11.90;;;7.80;;
18853;SDS011;9556;49.374;19.446;2024-01-11T11:04:14;9.90;;;6.45;;
18853;SDS011;9556;49.374;19.446;2024-01-11T11:06:42;12.23;;;7.75;;
18853;SDS011;9556;49.374;19.446;2024-01-11T11:09:10;11.38;;;7.22;;
18853;SDS011;9556;49.374;19.446;2024-01-11T11:11:38;10.52;;;6.32;;
18853;SDS011;9556;49.374;19.446;2024-01-11T11:14:06;9.27;;;6.25;;
18853;SDS011;9556;49.374;19.446;2024-01-11T11:16:34;10.57;;;6.07;;
18853;SDS011;9556;49.374;19.446;2024-01-11T11:19:03;8.95;;;5.65;;
18853;SDS011;9556;49.374;19.446;2024-01-11T11:21:30;11.20;;;6.20;;
18853;SDS011;9556;49.374;19.446;2024-01-11T11:23:57;9.40;;;5.93;;
18853;SDS011;9556;49.374;19.446;2024-01-11T11:26:25;10.45;;;6.70;;
18853;SDS011;9556;49.374;19.446;2024-01-11T11:28:53;8.40;;;5.90;;
18853;SDS011;9556;49.374;19.446;2024-01-11T11:31:36;10.35;;;6.22;;
18853;SDS011;9556;49.374;19.446;2024-01-11T11:34:05;8.52;;;5.80;;
18853;SDS011;9556;49.374;19.446;2024-01-11T11:36:33;10.60;;;6.47;;
18853;SDS011;9556;49.374;19.446;2024-01-11T11:39:01;10.10;;;6.20;;
18853;SDS011;9556;49.374;19.446;2024-01-11T11:41:30;9.60;;;6.07;;
18853;SDS011;9556;49.374;19.446;2024-01-11T11:44:00;9.57;;;6.20;;
18853;SDS011;9556;49.374;19.446;2024-01-11T11:46:28;8.82;;;5.65;;
18853;SDS011;9556;49.374;19.446;2024-01-11T11:48:56;8.68;;;6.07;;
18853;SDS011;9556;49.374;19.446;2024-01-11T11:51:26;8.23;;;5.65;;
18853;SDS011;9556;49.374;19.446;2024-01-11T11:53:53;9.48;;;6.15;;
18853;SDS011;9556;49.374;19.446;2024-01-11T11:56:21;9.60;;;6.00;;
18853;SDS011;9556;49.374;19.446;2024-01-11T11:58:48;9.10;;;5.57;;
18853;SDS011;9556;49.374;19.446;2024-01-11T12:01:17;9.32;;;5.68;;
18853;SDS011;9556;49.374;19.446;2024-01-11T12:03:44;8.10;;;5.22;;
18853;SDS011;9556;49.374;19.446;2024-01-11T12:06:14;8.38;;;5.38;;
18853;SDS011;9556;49.374;19.446;2024-01-11T12:08:43;9.07;;;5.57;;
18853;SDS011;9556;49.374;19.446;2024-01-11T12:11:12;10.32;;;6.10;;
18853;SDS011;9556;49.374;19.446;2024-01-11T12:13:39;8.85;;;5.40;;
18853;SDS011;9556;49.374;19.446;2024-01-11T12:16:09;9.40;;;5.60;;
18853;SDS011;9556;49.374;19.446;2024-01-11T12:18:36;8.88;;;5.68;;
18853;SDS011;9556;49.374;19.446;2024-01-11T12:21:03;8.90;;;5.82;;
18853;SDS011;9556;49.374;19.446;2024-01-11T12:23:31;8.50;;;5.65;;
18853;SDS011;9556;49.374;19.446;2024-01-11T12:26:02;8.32;;;5.15;;
18853;SDS011;9556;49.374;19.446;2024-01-11T12:28:31;8.38;;;5.28;;
18853;SDS011;9556;49.374;19.446;2024-01-11T12:30:59;8.90;;;5.53;;
18853;SDS011;9556;49.374;19.446;2024-01-11T12:33:26;8.95;;;5.47;;
18853;SDS011;9556;49.374;19.446;2024-01-11T12:35:54;9.25;;;5.60;;
18853;SDS011;9556;49.374;19.446;2024-01-11T12:38:21;8.10;;;5.07;;
18853;SDS011;9556;49.374;19.446;2024-01-11T12:40:48;8.18;;;5.55;;
18853;SDS011;9556;49.374;19.446;2024-01-11T12:43:17;9.02;;;5.35;;
18853;SDS011;9556;49.374;19.446;2024-01-11T12:45:44;7.60;;;5.20;;
18853;SDS011;9556;49.374;19.446;2024-01-11T12:48:12;8.10;;;5.30;;
18853;SDS011;9556;49.374;19.446;2024-01-11T12:50:41;7.57;;;4.80;;
18853;SDS011;9556;49.374;19.446;2024-01-11T12:53:09;7.65;;;5.38;;
18853;SDS011;9556;49.374;19.446;2024-01-11T12:55:42;6.88;;;4.72;;
18853;SDS011;9556;49.374;19.446;2024-01-11T12:58:10;7.88;;;5.10;;
18853;SDS011;9556;49.374;19.446;2024-01-11T13:00:38;8.30;;;5.57;;
18853;SDS011;9556;49.374;19.446;2024-01-11T13:03:05;10.80;;;6.55;;
18853;SDS011;9556;49.374;19.446;2024-01-11T13:05:34;7.55;;;5.38;;
18853;SDS011;9556;49.374;19.446;2024-01-11T13:08:02;8.70;;;5.88;;
18853;SDS011;9556;49.374;19.446;2024-01-11T13:10:29;7.75;;;5.10;;
18853;SDS011;9556;49.374;19.446;2024-01-11T13:12:57;7.68;;;5.28;;
18853;SDS011;9556;49.374;19.446;2024-01-11T13:15:26;8.32;;;4.88;;
18853;SDS011;9556;49.374;19.446;2024-01-11T13:17:55;7.90;;;5.10;;
18853;SDS011;9556;49.374;19.446;2024-01-11T13:20:23;7.28;;;5.03;;
18853;SDS011;9556;49.374;19.446;2024-01-11T13:22:56;7.35;;;4.90;;
18853;SDS011;9556;49.374;19.446;2024-01-11T13:25:38;7.47;;;4.72;;
18853;SDS011;9556;49.374;19.446;2024-01-11T13:28:05;7.18;;;5.10;;
18853;SDS011;9556;49.374;19.446;2024-01-11T13:30:33;6.40;;;4.55;;
18853;SDS011;9556;49.374;19.446;2024-01-11T13:33:01;7.40;;;4.60;;
18853;SDS011;9556;49.374;19.446;2024-01-11T13:35:28;8.23;;;5.10;;
18853;SDS011;9556;49.374;19.446;2024-01-11T13:37:55;7.45;;;4.78;;
18853;SDS011;9556;49.374;19.446;2024-01-11T13:40:22;6.55;;;4.30;;
18853;SDS011;9556;49.374;19.446;2024-01-11T13:42:50;7.15;;;4.55;;
18853;SDS011;9556;49.374;19.446;2024-01-11T13:45:17;7.05;;;4.78;;
18853;SDS011;9556;49.374;19.446;2024-01-11T13:47:44;6.55;;;4.50;;
18853;SDS011;9556;49.374;19.446;2024-01-11T13:50:13;6.70;;;4.10;;
18853;SDS011;9556;49.374;19.446;2024-01-11T13:52:41;7.38;;;4.47;;
18853;SDS011;9556;49.374;19.446;2024-01-11T13:55:08;6.55;;;4.40;;
18853;SDS011;9556;49.374;19.446;2024-01-11T13:57:36;7.15;;;4.50;;
18853;SDS011;9556;49.374;19.446;2024-01-11T14:00:03;6.13;;;3.90;;
18853;SDS011;9556;49.374;19.446;2024-01-11T14:02:31;5.50;;;3.90;;
18853;SDS011;9556;49.374;19.446;2024-01-11T14:04:58;6.25;;;4.13;;
18853;SDS011;9556;49.374;19.446;2024-01-11T14:07:27;6.25;;;4.28;;
18853;SDS011;9556;49.374;19.446;2024-01-11T14:09:55;6.55;;;4.25;;
18853;SDS011;9556;49.374;19.446;2024-01-11T14:12:23;7.00;;;4.43;;
18853;SDS011;9556;49.374;19.446;2024-01-11T14:14:50;6.22;;;4.03;;
18853;SDS011;9556;49.374;19.446;2024-01-11T14:17:17;6.28;;;4.18;;
18853;SDS011;9556;49.374;19.446;2024-01-11T14:19:44;6.53;;;4.20;;
18853;SDS011;9556;49.374;19.446;2024-01-11T14:22:11;6.18;;;4.00;;
18853;SDS011;9556;49.374;19.446;2024-01-11T14:24:40;6.43;;;3.85;;
18853;SDS011;9556;49.374;19.446;2024-01-11T14:27:10;5.32;;;3.90;;
18853;SDS011;9556;49.374;19.446;2024-01-11T14:29:39;6.63;;;4.10;;
18853;SDS011;9556;49.374;19.446;2024-01-11T14:32:06;5.78;;;3.97;;
18853;SDS011;9556;49.374;19.446;2024-01-11T14:34:33;5.57;;;4.00;;
18853;SDS011;9556;49.374;19.446;2024-01-11T14:37:00;5.80;;;3.83;;